TAP561 EDDH-LPPT
Flight info
| Callsign | TAP561 |
|---|---|
| Flight time | 2h 58m |
| Altitude | 40000 |
| Route | HABFU1C HABFU Y348 DOMEG DCT RASCA DCT FAMEN/N0463F390 DCT ESTOC DCT PON UN872 KURIS/N0450F350 UN872 ERIGA UZ218 FUJTI/N0465F390 DCT BAKUP DCT BATAX DCT INBOM |
| Aircraft | A339/H-SADE1E2E3GHIJ3J5M1P2RWXY/LB2D1 |
Departure
| Time | 2026-05-05 10:53 |
|---|---|
| Airport | Hamburg Helmut Schmidt Airport (EDDH) |
Arrival
| Time | 2026-05-05 13:52 |
|---|---|
| Airport | Lisbon Humberto Delgado Airport (LPPT) |
| Time | Latitude | Longitude | Altitude | Speed | Heading |
|---|---|---|---|---|---|
| 2026-05-05 10:27 | 53.63418 | 10.00334 | 70 ft | 0 kts | 101° |
| 2026-05-05 10:44 | 53.63420 | 10.00315 | 71 ft | 2 kts | 100° |
| 2026-05-05 10:44 | 53.63423 | 10.00290 | 71 ft | 2 kts | 101° |
| 2026-05-05 10:44 | 53.63425 | 10.00266 | 71 ft | 2 kts | 101° |
| 2026-05-05 10:45 | 53.63429 | 10.00241 | 71 ft | 2 kts | 113° |
| 2026-05-05 10:45 | 53.63436 | 10.00220 | 71 ft | 2 kts | 129° |
| 2026-05-05 10:45 | 53.63447 | 10.00202 | 71 ft | 2 kts | 143° |
| 2026-05-05 10:45 | 53.63459 | 10.00189 | 70 ft | 2 kts | 158° |
| 2026-05-05 10:46 | 53.63473 | 10.00182 | 70 ft | 2 kts | 172° |
| 2026-05-05 10:46 | 53.63480 | 10.00181 | 71 ft | 1 kts | 177° |
| 2026-05-05 10:46 | 53.63481 | 10.00181 | 71 ft | 0 kts | 177° |
| 2026-05-05 10:48 | 53.63474 | 10.00182 | 70 ft | 2 kts | 176° |
| 2026-05-05 10:49 | 53.63442 | 10.00185 | 70 ft | 6 kts | 176° |
| 2026-05-05 10:49 | 53.63387 | 10.00192 | 70 ft | 9 kts | 175° |
| 2026-05-05 10:49 | 53.63312 | 10.00202 | 70 ft | 11 kts | 175° |
| 2026-05-05 10:49 | 53.63227 | 10.00213 | 70 ft | 12 kts | 175° |
| 2026-05-05 10:50 | 53.63134 | 10.00224 | 71 ft | 14 kts | 176° |
| 2026-05-05 10:50 | 53.63041 | 10.00193 | 70 ft | 14 kts | 212° |
| 2026-05-05 10:50 | 53.62960 | 10.00104 | 71 ft | 13 kts | 213° |
| 2026-05-05 10:50 | 53.62871 | 10.00033 | 71 ft | 12 kts | 201° |
| 2026-05-05 10:51 | 53.62844 | 9.99967 | 70 ft | 3 kts | 247° |
| 2026-05-05 10:51 | 53.62841 | 9.99954 | 71 ft | 2 kts | 248° |
| 2026-05-05 10:51 | 53.62832 | 9.99915 | 70 ft | 4 kts | 247° |
| 2026-05-05 10:51 | 53.62815 | 9.99851 | 71 ft | 7 kts | 247° |
| 2026-05-05 10:52 | 53.62820 | 9.99795 | 71 ft | 5 kts | 306° |
| 2026-05-05 10:52 | 53.62857 | 9.99754 | 70 ft | 7 kts | 334° |
| 2026-05-05 10:52 | 53.63011 | 9.99627 | 71 ft | 55 kts | 333° |
| 2026-05-05 10:52 | 53.63556 | 9.99155 | 71 ft | 119 kts | 331° |
| 2026-05-05 10:53 | 53.64461 | 9.98376 | 104 ft | 167 kts | 335° |
| 2026-05-05 10:53 | 53.65501 | 9.97457 | 605 ft | 174 kts | 336° |
| 2026-05-05 10:53 | 53.66574 | 9.96526 | 1283 ft | 176 kts | 333° |
| 2026-05-05 10:53 | 53.67609 | 9.95432 | 1951 ft | 178 kts | 330° |
| 2026-05-05 10:54 | 53.68675 | 9.94305 | 2413 ft | 186 kts | 332° |
| 2026-05-05 10:54 | 53.69847 | 9.93274 | 2833 ft | 197 kts | 338° |
| 2026-05-05 10:54 | 53.71025 | 9.91937 | 3152 ft | 218 kts | 306° |
| 2026-05-05 10:54 | 53.71478 | 9.89506 | 3650 ft | 231 kts | 269° |
| 2026-05-05 10:55 | 53.71093 | 9.86780 | 4046 ft | 249 kts | 251° |
| 2026-05-05 10:55 | 53.70483 | 9.83960 | 4477 ft | 265 kts | 251° |
| 2026-05-05 10:55 | 53.69857 | 9.81024 | 5232 ft | 269 kts | 251° |
| 2026-05-05 10:55 | 53.69249 | 9.78073 | 6119 ft | 267 kts | 252° |
| 2026-05-05 10:56 | 53.68652 | 9.75111 | 6965 ft | 267 kts | 252° |
| 2026-05-05 10:56 | 53.68068 | 9.72165 | 7756 ft | 269 kts | 252° |
| 2026-05-05 10:56 | 53.67485 | 9.69210 | 8522 ft | 272 kts | 252° |
| 2026-05-05 10:56 | 53.66886 | 9.66171 | 9283 ft | 274 kts | 252° |
| 2026-05-05 10:57 | 53.66289 | 9.63152 | 10038 ft | 277 kts | 252° |
| 2026-05-05 10:57 | 53.65635 | 9.60071 | 10750 ft | 282 kts | 244° |
| 2026-05-05 10:57 | 53.64454 | 9.57429 | 11419 ft | 290 kts | 223° |
| 2026-05-05 10:57 | 53.62775 | 9.55579 | 12164 ft | 295 kts | 211° |
| 2026-05-05 10:58 | 53.60971 | 9.53937 | 12913 ft | 298 kts | 210° |
| 2026-05-05 10:58 | 53.59150 | 9.52287 | 13638 ft | 301 kts | 211° |
| 2026-05-05 10:58 | 53.57291 | 9.50600 | 14363 ft | 304 kts | 211° |
| 2026-05-05 10:58 | 53.55439 | 9.48916 | 15092 ft | 307 kts | 211° |
| 2026-05-05 10:59 | 53.53571 | 9.47210 | 15793 ft | 310 kts | 211° |
| 2026-05-05 10:59 | 53.51660 | 9.45464 | 16485 ft | 313 kts | 211° |
| 2026-05-05 10:59 | 53.49749 | 9.43719 | 17164 ft | 316 kts | 211° |
| 2026-05-05 10:59 | 53.47814 | 9.41955 | 17835 ft | 320 kts | 211° |
| 2026-05-05 11:00 | 53.45879 | 9.40194 | 18509 ft | 323 kts | 211° |
| 2026-05-05 11:00 | 53.43905 | 9.38400 | 19189 ft | 326 kts | 211° |
| 2026-05-05 11:00 | 53.41911 | 9.36589 | 19862 ft | 328 kts | 211° |
| 2026-05-05 11:00 | 53.39898 | 9.34761 | 20519 ft | 331 kts | 211° |
| 2026-05-05 11:01 | 53.37862 | 9.32916 | 21164 ft | 334 kts | 211° |
| 2026-05-05 11:01 | 53.35812 | 9.31063 | 21819 ft | 336 kts | 211° |
| 2026-05-05 11:01 | 53.33734 | 9.29284 | 22446 ft | 340 kts | 206° |
| 2026-05-05 11:01 | 53.31506 | 9.27899 | 23052 ft | 345 kts | 200° |
| 2026-05-05 11:02 | 53.29163 | 9.26966 | 23633 ft | 350 kts | 194° |
| 2026-05-05 11:02 | 53.26785 | 9.26238 | 24184 ft | 354 kts | 193° |
| 2026-05-05 11:02 | 53.24340 | 9.25520 | 24736 ft | 356 kts | 193° |
| 2026-05-05 11:02 | 53.21923 | 9.24811 | 25267 ft | 359 kts | 194° |
| 2026-05-05 11:03 | 53.19452 | 9.24081 | 25805 ft | 361 kts | 194° |
| 2026-05-05 11:03 | 53.16989 | 9.23355 | 26332 ft | 364 kts | 194° |
| 2026-05-05 11:03 | 53.14485 | 9.22614 | 26839 ft | 366 kts | 194° |
| 2026-05-05 11:03 | 53.11998 | 9.21876 | 27338 ft | 368 kts | 194° |
| 2026-05-05 11:04 | 53.09468 | 9.21128 | 27842 ft | 370 kts | 194° |
| 2026-05-05 11:04 | 53.06942 | 9.20382 | 28320 ft | 372 kts | 194° |
| 2026-05-05 11:04 | 53.04387 | 9.19627 | 28796 ft | 374 kts | 194° |
| 2026-05-05 11:04 | 53.01836 | 9.18876 | 29241 ft | 376 kts | 195° |
| 2026-05-05 11:05 | 52.99272 | 9.18073 | 29682 ft | 376 kts | 197° |
| 2026-05-05 11:05 | 52.96757 | 9.17009 | 30116 ft | 376 kts | 201° |
| 2026-05-05 11:05 | 52.94271 | 9.15633 | 30565 ft | 375 kts | 205° |
| 2026-05-05 11:05 | 52.91869 | 9.13968 | 30967 ft | 374 kts | 209° |
| 2026-05-05 11:06 | 52.89559 | 9.12039 | 31359 ft | 374 kts | 212° |
| 2026-05-05 11:06 | 52.87260 | 9.10021 | 31764 ft | 376 kts | 212° |
| 2026-05-05 11:06 | 52.84952 | 9.07998 | 32154 ft | 378 kts | 212° |
| 2026-05-05 11:06 | 52.82637 | 9.05973 | 32533 ft | 379 kts | 212° |
| 2026-05-05 11:07 | 52.80307 | 9.03936 | 32909 ft | 381 kts | 212° |
| 2026-05-05 11:07 | 52.77945 | 9.01874 | 33272 ft | 382 kts | 212° |
| 2026-05-05 11:07 | 52.75604 | 8.99836 | 33638 ft | 384 kts | 212° |
| 2026-05-05 11:07 | 52.73251 | 8.97786 | 33982 ft | 385 kts | 212° |
| 2026-05-05 11:08 | 52.70904 | 8.95745 | 34337 ft | 386 kts | 212° |
| 2026-05-05 11:08 | 52.68514 | 8.93669 | 34665 ft | 387 kts | 212° |
| 2026-05-05 11:08 | 52.66154 | 8.91619 | 34985 ft | 389 kts | 212° |
| 2026-05-05 11:08 | 52.63752 | 8.89534 | 35212 ft | 390 kts | 212° |
| 2026-05-05 11:09 | 52.61339 | 8.87442 | 35403 ft | 393 kts | 211° |
| 2026-05-05 11:09 | 52.58931 | 8.85355 | 35591 ft | 395 kts | 211° |
| 2026-05-05 11:09 | 52.56514 | 8.83265 | 35776 ft | 397 kts | 211° |
| 2026-05-05 11:09 | 52.54062 | 8.81150 | 35953 ft | 400 kts | 211° |
| 2026-05-05 11:10 | 52.51591 | 8.79018 | 36097 ft | 402 kts | 211° |
| 2026-05-05 11:10 | 52.49124 | 8.76894 | 36237 ft | 404 kts | 211° |
| 2026-05-05 11:10 | 52.46641 | 8.74759 | 36369 ft | 407 kts | 211° |
| 2026-05-05 11:10 | 52.44141 | 8.72613 | 36517 ft | 408 kts | 211° |
| 2026-05-05 11:11 | 52.41641 | 8.70468 | 36713 ft | 410 kts | 211° |
| 2026-05-05 11:11 | 52.39089 | 8.68283 | 36900 ft | 412 kts | 210° |
| 2026-05-05 11:11 | 52.36575 | 8.66132 | 37061 ft | 415 kts | 210° |
| 2026-05-05 11:11 | 52.34023 | 8.63840 | 37260 ft | 416 kts | 213° |
| 2026-05-05 11:12 | 52.31582 | 8.61386 | 37489 ft | 416 kts | 216° |
| 2026-05-05 11:12 | 52.29218 | 8.58734 | 37712 ft | 416 kts | 218° |
| 2026-05-05 11:12 | 52.26907 | 8.55852 | 37927 ft | 416 kts | 221° |
| 2026-05-05 11:12 | 52.24718 | 8.52824 | 38120 ft | 417 kts | 223° |
| 2026-05-05 11:13 | 52.22608 | 8.49592 | 38292 ft | 418 kts | 226° |
| 2026-05-05 11:13 | 52.20613 | 8.46212 | 38459 ft | 419 kts | 229° |
| 2026-05-05 11:13 | 52.18654 | 8.42693 | 38613 ft | 421 kts | 229° |
| 2026-05-05 11:13 | 52.16690 | 8.39183 | 38757 ft | 423 kts | 229° |
| 2026-05-05 11:14 | 52.14698 | 8.35631 | 38901 ft | 424 kts | 229° |
| 2026-05-05 11:14 | 52.12714 | 8.32097 | 39077 ft | 425 kts | 228° |
| 2026-05-05 11:14 | 52.10725 | 8.28557 | 39233 ft | 427 kts | 228° |
| 2026-05-05 11:14 | 52.08736 | 8.25019 | 39363 ft | 429 kts | 228° |
| 2026-05-05 11:15 | 52.06713 | 8.21425 | 39490 ft | 430 kts | 228° |
| 2026-05-05 11:15 | 52.04691 | 8.17837 | 39621 ft | 432 kts | 228° |
| 2026-05-05 11:15 | 52.02659 | 8.14235 | 39771 ft | 433 kts | 228° |
| 2026-05-05 11:15 | 52.00646 | 8.10673 | 39873 ft | 434 kts | 228° |
| 2026-05-05 11:16 | 51.98613 | 8.07081 | 39880 ft | 435 kts | 228° |
| 2026-05-05 11:16 | 51.94523 | 7.99866 | 39883 ft | 436 kts | 227° |
| 2026-05-05 11:17 | 51.90419 | 7.92646 | 39883 ft | 436 kts | 227° |
| 2026-05-05 11:17 | 51.86328 | 7.85476 | 39880 ft | 436 kts | 227° |
| 2026-05-05 11:18 | 51.82219 | 7.78295 | 39879 ft | 435 kts | 227° |
| 2026-05-05 11:18 | 51.78103 | 7.71119 | 39885 ft | 435 kts | 228° |
| 2026-05-05 11:19 | 51.74000 | 7.63982 | 39885 ft | 436 kts | 227° |
| 2026-05-05 11:19 | 51.69899 | 7.56835 | 39891 ft | 436 kts | 229° |
| 2026-05-05 11:20 | 51.65899 | 7.49546 | 39885 ft | 436 kts | 229° |
| 2026-05-05 11:20 | 51.61915 | 7.42271 | 39889 ft | 435 kts | 229° |
| 2026-05-05 11:21 | 51.57923 | 7.35020 | 39875 ft | 435 kts | 229° |
| 2026-05-05 11:21 | 51.53881 | 7.27711 | 39881 ft | 436 kts | 228° |
| 2026-05-05 11:22 | 51.49858 | 7.20461 | 39875 ft | 436 kts | 228° |
| 2026-05-05 11:22 | 51.45855 | 7.13271 | 39871 ft | 436 kts | 228° |
| 2026-05-05 11:23 | 51.41811 | 7.06024 | 39868 ft | 437 kts | 228° |
| 2026-05-05 11:23 | 51.37769 | 6.98803 | 39872 ft | 436 kts | 228° |
| 2026-05-05 11:24 | 51.33725 | 6.91602 | 39876 ft | 437 kts | 228° |
| 2026-05-05 11:24 | 51.29665 | 6.84389 | 39876 ft | 436 kts | 228° |
| 2026-05-05 11:25 | 51.25603 | 6.77199 | 39873 ft | 436 kts | 228° |
| 2026-05-05 11:25 | 51.21561 | 6.70061 | 39881 ft | 437 kts | 227° |
| 2026-05-05 11:26 | 51.17491 | 6.62891 | 39879 ft | 437 kts | 227° |
| 2026-05-05 11:26 | 51.13408 | 6.55723 | 39868 ft | 437 kts | 227° |
| 2026-05-05 11:27 | 51.09328 | 6.48581 | 39870 ft | 437 kts | 227° |
| 2026-05-05 11:27 | 51.05253 | 6.41463 | 39869 ft | 438 kts | 227° |
| 2026-05-05 11:28 | 51.01168 | 6.34351 | 39865 ft | 439 kts | 227° |
| 2026-05-05 11:28 | 50.97033 | 6.27173 | 39871 ft | 438 kts | 227° |
| 2026-05-05 11:29 | 50.92933 | 6.20075 | 39871 ft | 438 kts | 227° |
| 2026-05-05 11:29 | 50.88808 | 6.12953 | 39879 ft | 438 kts | 227° |
| 2026-05-05 11:30 | 50.84692 | 6.05869 | 39874 ft | 439 kts | 227° |
| 2026-05-05 11:30 | 50.80581 | 5.98808 | 39871 ft | 438 kts | 226° |
| 2026-05-05 11:31 | 50.76470 | 5.91772 | 39864 ft | 439 kts | 226° |
| 2026-05-05 11:31 | 50.72336 | 5.84715 | 39870 ft | 440 kts | 226° |
| 2026-05-05 11:32 | 50.68199 | 5.77672 | 39876 ft | 440 kts | 226° |
| 2026-05-05 11:32 | 50.64041 | 5.70613 | 39876 ft | 440 kts | 226° |
| 2026-05-05 11:33 | 50.59883 | 5.63572 | 39877 ft | 441 kts | 226° |
| 2026-05-05 11:33 | 50.55717 | 5.56541 | 39880 ft | 441 kts | 226° |
| 2026-05-05 11:34 | 50.51544 | 5.49515 | 39877 ft | 442 kts | 226° |
| 2026-05-05 11:34 | 50.47353 | 5.42479 | 39874 ft | 442 kts | 226° |
| 2026-05-05 11:35 | 50.43170 | 5.35477 | 39868 ft | 443 kts | 226° |
| 2026-05-05 11:35 | 50.38944 | 5.28421 | 39866 ft | 442 kts | 225° |
| 2026-05-05 11:36 | 50.34768 | 5.21469 | 39862 ft | 442 kts | 225° |
| 2026-05-05 11:36 | 50.30568 | 5.14493 | 39860 ft | 443 kts | 225° |
| 2026-05-05 11:37 | 50.26330 | 5.07477 | 39856 ft | 443 kts | 225° |
| 2026-05-05 11:37 | 50.22104 | 5.00500 | 39857 ft | 444 kts | 225° |
| 2026-05-05 11:38 | 50.17884 | 4.93551 | 39850 ft | 444 kts | 225° |
| 2026-05-05 11:38 | 50.13702 | 4.86494 | 39855 ft | 444 kts | 228° |
| 2026-05-05 11:39 | 50.09753 | 4.79182 | 39851 ft | 445 kts | 229° |
| 2026-05-05 11:39 | 50.05760 | 4.71826 | 39849 ft | 445 kts | 229° |
| 2026-05-05 11:40 | 50.01783 | 4.64518 | 39856 ft | 445 kts | 229° |
| 2026-05-05 11:40 | 49.97936 | 4.56984 | 39839 ft | 447 kts | 233° |
| 2026-05-05 11:41 | 49.94588 | 4.48898 | 39857 ft | 448 kts | 238° |
| 2026-05-05 11:41 | 49.91463 | 4.40558 | 39848 ft | 449 kts | 238° |
| 2026-05-05 11:42 | 49.88333 | 4.32237 | 39839 ft | 449 kts | 238° |
| 2026-05-05 11:42 | 49.85193 | 4.23916 | 39841 ft | 449 kts | 237° |
| 2026-05-05 11:43 | 49.82036 | 4.15572 | 39843 ft | 450 kts | 238° |
| 2026-05-05 11:43 | 49.78881 | 4.07263 | 39836 ft | 450 kts | 238° |
| 2026-05-05 11:44 | 49.75716 | 3.98957 | 39839 ft | 450 kts | 238° |
| 2026-05-05 11:44 | 49.72552 | 3.90675 | 39841 ft | 450 kts | 238° |
| 2026-05-05 11:45 | 49.69377 | 3.82394 | 39839 ft | 450 kts | 238° |
| 2026-05-05 11:45 | 49.66190 | 3.74105 | 39843 ft | 451 kts | 238° |
| 2026-05-05 11:46 | 49.62993 | 3.65813 | 39845 ft | 452 kts | 238° |
| 2026-05-05 11:46 | 49.59772 | 3.57488 | 39843 ft | 452 kts | 238° |
| 2026-05-05 11:47 | 49.56572 | 3.49248 | 39845 ft | 452 kts | 238° |
| 2026-05-05 11:47 | 49.53347 | 3.40972 | 39845 ft | 453 kts | 238° |
| 2026-05-05 11:48 | 49.48498 | 3.28565 | 39847 ft | 453 kts | 237° |
| 2026-05-05 11:48 | 49.45260 | 3.20318 | 39841 ft | 453 kts | 237° |
| 2026-05-05 11:49 | 49.41995 | 3.12025 | 39847 ft | 453 kts | 237° |
| 2026-05-05 11:49 | 49.38733 | 3.03768 | 39840 ft | 454 kts | 237° |
| 2026-05-05 11:50 | 49.35458 | 2.95502 | 39842 ft | 455 kts | 237° |
| 2026-05-05 11:50 | 49.32191 | 2.87279 | 39846 ft | 454 kts | 237° |
| 2026-05-05 11:51 | 49.28904 | 2.79032 | 39830 ft | 454 kts | 237° |
| 2026-05-05 11:51 | 49.25617 | 2.70818 | 39836 ft | 454 kts | 237° |
| 2026-05-05 11:52 | 49.22343 | 2.62653 | 39845 ft | 454 kts | 237° |
| 2026-05-05 11:52 | 49.19039 | 2.54447 | 39839 ft | 454 kts | 237° |
| 2026-05-05 11:53 | 49.15953 | 2.46023 | 39843 ft | 456 kts | 243° |
| 2026-05-05 11:53 | 49.13552 | 2.37061 | 39840 ft | 459 kts | 250° |
| 2026-05-05 11:54 | 49.11908 | 2.27689 | 39850 ft | 461 kts | 257° |
| 2026-05-05 11:54 | 49.10939 | 2.18084 | 39846 ft | 462 kts | 260° |
| 2026-05-05 11:55 | 49.09821 | 2.08444 | 39843 ft | 460 kts | 254° |
| 2026-05-05 11:55 | 49.08024 | 1.99171 | 39834 ft | 458 kts | 249° |
| 2026-05-05 11:56 | 49.05590 | 1.90249 | 39834 ft | 456 kts | 244° |
| 2026-05-05 11:56 | 49.02947 | 1.81502 | 39840 ft | 457 kts | 244° |
| 2026-05-05 11:57 | 49.00297 | 1.72748 | 39837 ft | 458 kts | 244° |
| 2026-05-05 11:57 | 48.97642 | 1.63998 | 39834 ft | 458 kts | 244° |
| 2026-05-05 11:58 | 48.94961 | 1.55194 | 39837 ft | 459 kts | 244° |
| 2026-05-05 11:58 | 48.92281 | 1.46426 | 39840 ft | 459 kts | 244° |
| 2026-05-05 11:59 | 48.89592 | 1.37653 | 39842 ft | 459 kts | 244° |
| 2026-05-05 11:59 | 48.86900 | 1.28908 | 39840 ft | 458 kts | 243° |
| 2026-05-05 12:00 | 48.84208 | 1.20189 | 39840 ft | 458 kts | 243° |
| 2026-05-05 12:00 | 48.81515 | 1.11500 | 39834 ft | 459 kts | 243° |
| 2026-05-05 12:01 | 48.78794 | 1.02745 | 39840 ft | 459 kts | 243° |
| 2026-05-05 12:01 | 48.76077 | 0.94043 | 39838 ft | 460 kts | 243° |
| 2026-05-05 12:02 | 48.73096 | 0.85508 | 39837 ft | 459 kts | 238° |
| 2026-05-05 12:02 | 48.69772 | 0.77285 | 39851 ft | 459 kts | 237° |
| 2026-05-05 12:03 | 48.66455 | 0.69109 | 39858 ft | 459 kts | 237° |
| 2026-05-05 12:03 | 48.63134 | 0.60946 | 39853 ft | 459 kts | 237° |
| 2026-05-05 12:04 | 48.59791 | 0.52749 | 39863 ft | 459 kts | 237° |
| 2026-05-05 12:04 | 48.56450 | 0.44588 | 39859 ft | 459 kts | 237° |
| 2026-05-05 12:05 | 48.53098 | 0.36422 | 39864 ft | 459 kts | 237° |
| 2026-05-05 12:05 | 48.49748 | 0.28286 | 39859 ft | 459 kts | 237° |
| 2026-05-05 12:06 | 48.46368 | 0.20100 | 39866 ft | 460 kts | 237° |
| 2026-05-05 12:06 | 48.42984 | 0.11929 | 39863 ft | 460 kts | 237° |
| 2026-05-05 12:07 | 48.39611 | 0.03816 | 39866 ft | 461 kts | 237° |
| 2026-05-05 12:07 | 48.36185 | -0.04269 | 39859 ft | 461 kts | 234° |
| 2026-05-05 12:08 | 48.32391 | -0.12058 | 39856 ft | 461 kts | 232° |
| 2026-05-05 12:08 | 48.28595 | -0.19721 | 39857 ft | 461 kts | 232° |
| 2026-05-05 12:09 | 48.24775 | -0.27385 | 39853 ft | 461 kts | 232° |
| 2026-05-05 12:09 | 48.20871 | -0.35041 | 39856 ft | 461 kts | 232° |
| 2026-05-05 12:10 | 48.16997 | -0.42599 | 39858 ft | 462 kts | 232° |
| 2026-05-05 12:10 | 48.13082 | -0.50227 | 39866 ft | 463 kts | 232° |
| 2026-05-05 12:11 | 48.09180 | -0.57815 | 39876 ft | 464 kts | 232° |
| 2026-05-05 12:11 | 48.05262 | -0.65417 | 39880 ft | 464 kts | 231° |
| 2026-05-05 12:12 | 48.01323 | -0.73035 | 39879 ft | 464 kts | 231° |
| 2026-05-05 12:12 | 47.97378 | -0.80643 | 39880 ft | 463 kts | 231° |
| 2026-05-05 12:13 | 47.93466 | -0.88168 | 39885 ft | 462 kts | 231° |
| 2026-05-05 12:13 | 47.89511 | -0.95753 | 39886 ft | 463 kts | 231° |
| 2026-05-05 12:14 | 47.85560 | -1.03312 | 39882 ft | 464 kts | 231° |
| 2026-05-05 12:14 | 47.81621 | -1.10823 | 39882 ft | 464 kts | 231° |
| 2026-05-05 12:15 | 47.77638 | -1.18400 | 39887 ft | 465 kts | 231° |
| 2026-05-05 12:15 | 47.73682 | -1.25903 | 39883 ft | 464 kts | 231° |
| 2026-05-05 12:16 | 47.69702 | -1.33434 | 39894 ft | 464 kts | 231° |
| 2026-05-05 12:16 | 47.65736 | -1.40914 | 39892 ft | 464 kts | 231° |
| 2026-05-05 12:17 | 47.61744 | -1.48422 | 39891 ft | 464 kts | 231° |
| 2026-05-05 12:17 | 47.57603 | -1.55658 | 39885 ft | 465 kts | 228° |
| 2026-05-05 12:18 | 47.53308 | -1.62737 | 39890 ft | 465 kts | 228° |
| 2026-05-05 12:18 | 47.48949 | -1.69905 | 39893 ft | 465 kts | 227° |
| 2026-05-05 12:19 | 47.44658 | -1.76943 | 39897 ft | 464 kts | 227° |
| 2026-05-05 12:19 | 47.40340 | -1.83992 | 39900 ft | 465 kts | 226° |
| 2026-05-05 12:20 | 47.35725 | -1.90622 | 39903 ft | 465 kts | 220° |
| 2026-05-05 12:20 | 47.30615 | -1.96507 | 39904 ft | 466 kts | 214° |
| 2026-05-05 12:21 | 47.25123 | -2.01607 | 39897 ft | 466 kts | 211° |
| 2026-05-05 12:21 | 47.19586 | -2.06550 | 39896 ft | 466 kts | 211° |
| 2026-05-05 12:22 | 47.14103 | -2.11441 | 39905 ft | 465 kts | 211° |
| 2026-05-05 12:22 | 47.08561 | -2.16370 | 39892 ft | 465 kts | 211° |
| 2026-05-05 12:23 | 47.03029 | -2.21279 | 39899 ft | 465 kts | 211° |
| 2026-05-05 12:23 | 46.97527 | -2.26148 | 39889 ft | 466 kts | 211° |
| 2026-05-05 12:24 | 46.91998 | -2.31028 | 39893 ft | 466 kts | 211° |
| 2026-05-05 12:24 | 46.86430 | -2.35927 | 39895 ft | 466 kts | 211° |
| 2026-05-05 12:25 | 46.80870 | -2.40812 | 39896 ft | 466 kts | 211° |
| 2026-05-05 12:25 | 46.75349 | -2.45654 | 39896 ft | 466 kts | 211° |
| 2026-05-05 12:26 | 46.69786 | -2.50520 | 39908 ft | 466 kts | 211° |
| 2026-05-05 12:26 | 46.64259 | -2.55343 | 39909 ft | 466 kts | 211° |
| 2026-05-05 12:27 | 46.58698 | -2.60183 | 39911 ft | 466 kts | 211° |
| 2026-05-05 12:27 | 46.53144 | -2.65004 | 39919 ft | 466 kts | 211° |
| 2026-05-05 12:28 | 46.47595 | -2.69808 | 39925 ft | 466 kts | 211° |
| 2026-05-05 12:28 | 46.42033 | -2.74614 | 39922 ft | 466 kts | 211° |
| 2026-05-05 12:29 | 46.36470 | -2.79410 | 39930 ft | 467 kts | 211° |
| 2026-05-05 12:29 | 46.30884 | -2.84214 | 39923 ft | 467 kts | 211° |
| 2026-05-05 12:30 | 46.25281 | -2.89028 | 39931 ft | 467 kts | 211° |
| 2026-05-05 12:30 | 46.19756 | -2.93843 | 39925 ft | 467 kts | 212° |
| 2026-05-05 12:31 | 46.14209 | -2.98676 | 39928 ft | 468 kts | 211° |
| 2026-05-05 12:31 | 46.08656 | -3.03498 | 39935 ft | 468 kts | 211° |
| 2026-05-05 12:32 | 46.03072 | -3.08333 | 39926 ft | 469 kts | 212° |
| 2026-05-05 12:32 | 45.97499 | -3.13146 | 39934 ft | 468 kts | 211° |
| 2026-05-05 12:33 | 45.91933 | -3.17940 | 39936 ft | 468 kts | 211° |
| 2026-05-05 12:33 | 45.86348 | -3.22738 | 39935 ft | 468 kts | 212° |
| 2026-05-05 12:34 | 45.80765 | -3.27524 | 39938 ft | 468 kts | 212° |
| 2026-05-05 12:34 | 45.75211 | -3.32275 | 39943 ft | 468 kts | 212° |
| 2026-05-05 12:35 | 45.69608 | -3.37059 | 39945 ft | 468 kts | 212° |
| 2026-05-05 12:35 | 45.64028 | -3.41809 | 39952 ft | 468 kts | 212° |
| 2026-05-05 12:36 | 45.58458 | -3.46541 | 39956 ft | 468 kts | 212° |
| 2026-05-05 12:36 | 45.52834 | -3.51305 | 39959 ft | 468 kts | 212° |
| 2026-05-05 12:37 | 45.47263 | -3.56013 | 39959 ft | 468 kts | 212° |
| 2026-05-05 12:37 | 45.41670 | -3.60730 | 39960 ft | 468 kts | 212° |
| 2026-05-05 12:38 | 45.36073 | -3.65440 | 39963 ft | 468 kts | 211° |
| 2026-05-05 12:38 | 45.30487 | -3.70131 | 39963 ft | 468 kts | 211° |
| 2026-05-05 12:39 | 45.24888 | -3.74821 | 39964 ft | 468 kts | 211° |
| 2026-05-05 12:39 | 45.19281 | -3.79507 | 39968 ft | 468 kts | 211° |
| 2026-05-05 12:40 | 45.13690 | -3.84166 | 39971 ft | 468 kts | 211° |
| 2026-05-05 12:40 | 45.08082 | -3.88829 | 39971 ft | 468 kts | 211° |
| 2026-05-05 12:41 | 45.02494 | -3.93467 | 39973 ft | 468 kts | 211° |
| 2026-05-05 12:41 | 44.96873 | -3.98122 | 39973 ft | 468 kts | 211° |
| 2026-05-05 12:42 | 44.91269 | -4.02752 | 39977 ft | 468 kts | 211° |
| 2026-05-05 12:42 | 44.85638 | -4.07391 | 39978 ft | 468 kts | 211° |
| 2026-05-05 12:43 | 44.80046 | -4.11989 | 39979 ft | 467 kts | 211° |
| 2026-05-05 12:43 | 44.74435 | -4.16592 | 39979 ft | 467 kts | 211° |
| 2026-05-05 12:44 | 44.68810 | -4.21197 | 39980 ft | 467 kts | 212° |
| 2026-05-05 12:44 | 44.63250 | -4.25739 | 39982 ft | 467 kts | 212° |
| 2026-05-05 12:45 | 44.57620 | -4.30327 | 39980 ft | 467 kts | 212° |
| 2026-05-05 12:45 | 44.52007 | -4.34891 | 39983 ft | 467 kts | 212° |
| 2026-05-05 12:46 | 44.46394 | -4.39445 | 39984 ft | 467 kts | 212° |
| 2026-05-05 12:46 | 44.40774 | -4.43996 | 39986 ft | 467 kts | 212° |
| 2026-05-05 12:47 | 44.35251 | -4.48651 | 39989 ft | 466 kts | 213° |
| 2026-05-05 12:47 | 44.29723 | -4.53354 | 39989 ft | 466 kts | 213° |
| 2026-05-05 12:48 | 44.24185 | -4.58044 | 39990 ft | 466 kts | 213° |
| 2026-05-05 12:48 | 44.18667 | -4.62699 | 39991 ft | 466 kts | 213° |
| 2026-05-05 12:49 | 44.13121 | -4.67364 | 39993 ft | 467 kts | 212° |
| 2026-05-05 12:49 | 44.07534 | -4.72051 | 39994 ft | 467 kts | 212° |
| 2026-05-05 12:50 | 44.01985 | -4.76694 | 39993 ft | 467 kts | 212° |
| 2026-05-05 12:50 | 43.96438 | -4.81327 | 39996 ft | 467 kts | 212° |
| 2026-05-05 12:51 | 43.90900 | -4.85941 | 39995 ft | 466 kts | 212° |
| 2026-05-05 12:51 | 43.85350 | -4.90557 | 39994 ft | 465 kts | 212° |
| 2026-05-05 12:52 | 43.79780 | -4.95179 | 39997 ft | 465 kts | 213° |
| 2026-05-05 12:52 | 43.74271 | -4.99740 | 39994 ft | 465 kts | 213° |
| 2026-05-05 12:53 | 43.68710 | -5.04333 | 39995 ft | 466 kts | 213° |
| 2026-05-05 12:53 | 43.63177 | -5.08893 | 39992 ft | 466 kts | 213° |
| 2026-05-05 12:54 | 43.54859 | -5.15731 | 39996 ft | 466 kts | 213° |
| 2026-05-05 12:55 | 43.49317 | -5.20273 | 39996 ft | 465 kts | 213° |
| 2026-05-05 12:55 | 43.43734 | -5.24841 | 40002 ft | 465 kts | 213° |
| 2026-05-05 12:56 | 43.38191 | -5.29366 | 40004 ft | 465 kts | 213° |
| 2026-05-05 12:56 | 43.32670 | -5.33863 | 40009 ft | 465 kts | 213° |
| 2026-05-05 12:57 | 43.27105 | -5.38386 | 40008 ft | 465 kts | 213° |
| 2026-05-05 12:57 | 43.21573 | -5.42872 | 40011 ft | 465 kts | 213° |
| 2026-05-05 12:58 | 43.15982 | -5.47397 | 40008 ft | 465 kts | 213° |
| 2026-05-05 12:58 | 43.10426 | -5.51883 | 40000 ft | 464 kts | 213° |
| 2026-05-05 12:59 | 43.04870 | -5.56362 | 39991 ft | 464 kts | 213° |
| 2026-05-05 12:59 | 42.99330 | -5.60816 | 39975 ft | 464 kts | 213° |
| 2026-05-05 13:00 | 42.90961 | -5.67528 | 39984 ft | 465 kts | 213° |
| 2026-05-05 13:01 | 42.79853 | -5.76404 | 39993 ft | 464 kts | 213° |
| 2026-05-05 13:01 | 42.74291 | -5.80836 | 39995 ft | 464 kts | 213° |
| 2026-05-05 13:02 | 42.68700 | -5.85279 | 39998 ft | 464 kts | 213° |
| 2026-05-05 13:02 | 42.63150 | -5.89680 | 39994 ft | 464 kts | 213° |
| 2026-05-05 13:03 | 42.57576 | -5.94093 | 39998 ft | 464 kts | 213° |
| 2026-05-05 13:03 | 42.52022 | -5.98480 | 40003 ft | 464 kts | 213° |
| 2026-05-05 13:04 | 42.46483 | -6.02846 | 40002 ft | 463 kts | 213° |
| 2026-05-05 13:04 | 42.40905 | -6.07234 | 39998 ft | 464 kts | 213° |
| 2026-05-05 13:05 | 42.35357 | -6.11589 | 39997 ft | 464 kts | 213° |
| 2026-05-05 13:05 | 42.29761 | -6.15973 | 39992 ft | 464 kts | 213° |
| 2026-05-05 13:06 | 42.24198 | -6.20322 | 39990 ft | 464 kts | 213° |
| 2026-05-05 13:06 | 42.18623 | -6.24670 | 39987 ft | 463 kts | 213° |
| 2026-05-05 13:07 | 42.13059 | -6.29002 | 39988 ft | 462 kts | 213° |
| 2026-05-05 13:07 | 42.07498 | -6.33323 | 39980 ft | 462 kts | 213° |
| 2026-05-05 13:08 | 42.01929 | -6.37640 | 39991 ft | 462 kts | 213° |
| 2026-05-05 13:08 | 41.96370 | -6.41942 | 40004 ft | 463 kts | 213° |
| 2026-05-05 13:09 | 41.90820 | -6.46227 | 39997 ft | 462 kts | 213° |
| 2026-05-05 13:09 | 41.85231 | -6.50534 | 39996 ft | 462 kts | 213° |
| 2026-05-05 13:10 | 41.79639 | -6.54833 | 40006 ft | 461 kts | 214° |
| 2026-05-05 13:10 | 41.74107 | -6.59080 | 39997 ft | 461 kts | 213° |
| 2026-05-05 13:11 | 41.68710 | -6.63621 | 40008 ft | 458 kts | 219° |
| 2026-05-05 13:11 | 41.63660 | -6.68699 | 40010 ft | 456 kts | 220° |
| 2026-05-05 13:12 | 41.58624 | -6.73830 | 40008 ft | 457 kts | 220° |
| 2026-05-05 13:12 | 41.53560 | -6.78979 | 40009 ft | 456 kts | 221° |
| 2026-05-05 13:13 | 41.48519 | -6.84095 | 40012 ft | 456 kts | 221° |
| 2026-05-05 13:13 | 41.43486 | -6.89190 | 40015 ft | 455 kts | 221° |
| 2026-05-05 13:14 | 41.38471 | -6.94257 | 40022 ft | 454 kts | 221° |
| 2026-05-05 13:14 | 41.33469 | -6.99298 | 40016 ft | 454 kts | 221° |
| 2026-05-05 13:15 | 41.28417 | -7.04383 | 40012 ft | 454 kts | 221° |
| 2026-05-05 13:15 | 41.23422 | -7.09401 | 40019 ft | 454 kts | 221° |
| 2026-05-05 13:16 | 41.18374 | -7.14462 | 40015 ft | 454 kts | 221° |
| 2026-05-05 13:16 | 41.13340 | -7.19499 | 40025 ft | 453 kts | 221° |
| 2026-05-05 13:17 | 41.08333 | -7.24498 | 40024 ft | 452 kts | 221° |
| 2026-05-05 13:17 | 41.03321 | -7.29493 | 40019 ft | 452 kts | 221° |
| 2026-05-05 13:18 | 40.98331 | -7.34457 | 40030 ft | 451 kts | 221° |
| 2026-05-05 13:18 | 40.93322 | -7.39431 | 40049 ft | 452 kts | 221° |
| 2026-05-05 13:19 | 40.88285 | -7.44420 | 40033 ft | 452 kts | 221° |
| 2026-05-05 13:19 | 40.83237 | -7.49411 | 40042 ft | 451 kts | 221° |
| 2026-05-05 13:20 | 40.78249 | -7.54313 | 40042 ft | 451 kts | 221° |
| 2026-05-05 13:20 | 40.73177 | -7.59145 | 40030 ft | 450 kts | 220° |
| 2026-05-05 13:21 | 40.68100 | -7.63965 | 40045 ft | 450 kts | 221° |
| 2026-05-05 13:21 | 40.63009 | -7.68802 | 40045 ft | 450 kts | 220° |
| 2026-05-05 13:22 | 40.57931 | -7.73623 | 40049 ft | 450 kts | 220° |
| 2026-05-05 13:22 | 40.52868 | -7.78422 | 40042 ft | 449 kts | 220° |
| 2026-05-05 13:23 | 40.50349 | -7.80806 | 39811 ft | 451 kts | 220° |
| 2026-05-05 13:23 | 40.47800 | -7.83217 | 39341 ft | 452 kts | 220° |
| 2026-05-05 13:23 | 40.45277 | -7.85600 | 38824 ft | 452 kts | 220° |
| 2026-05-05 13:23 | 40.42727 | -7.88004 | 38332 ft | 452 kts | 221° |
| 2026-05-05 13:24 | 40.40161 | -7.90422 | 37868 ft | 450 kts | 221° |
| 2026-05-05 13:24 | 40.37623 | -7.92811 | 37373 ft | 448 kts | 221° |
| 2026-05-05 13:24 | 40.35126 | -7.95160 | 37002 ft | 444 kts | 221° |
| 2026-05-05 13:24 | 40.32649 | -7.97485 | 36891 ft | 434 kts | 221° |
| 2026-05-05 13:25 | 40.30214 | -7.99772 | 36469 ft | 432 kts | 221° |
| 2026-05-05 13:25 | 40.27756 | -8.02084 | 36049 ft | 430 kts | 222° |
| 2026-05-05 13:25 | 40.25347 | -8.04343 | 35829 ft | 425 kts | 222° |
| 2026-05-05 13:25 | 40.22977 | -8.06564 | 35621 ft | 421 kts | 222° |
| 2026-05-05 13:26 | 40.20612 | -8.08782 | 35203 ft | 420 kts | 222° |
| 2026-05-05 13:26 | 40.18236 | -8.11006 | 34839 ft | 418 kts | 223° |
| 2026-05-05 13:26 | 40.15896 | -8.13195 | 34440 ft | 416 kts | 223° |
| 2026-05-05 13:26 | 40.13525 | -8.15413 | 33929 ft | 415 kts | 223° |
| 2026-05-05 13:27 | 40.11189 | -8.17594 | 33531 ft | 411 kts | 223° |
| 2026-05-05 13:27 | 40.08890 | -8.19737 | 33106 ft | 408 kts | 223° |
| 2026-05-05 13:27 | 40.06582 | -8.21888 | 32652 ft | 406 kts | 223° |
| 2026-05-05 13:27 | 40.04299 | -8.24014 | 32229 ft | 403 kts | 223° |
| 2026-05-05 13:28 | 40.02036 | -8.26118 | 31844 ft | 399 kts | 223° |
| 2026-05-05 13:28 | 39.99794 | -8.28200 | 31443 ft | 396 kts | 223° |
| 2026-05-05 13:28 | 39.97570 | -8.30265 | 31046 ft | 393 kts | 223° |
| 2026-05-05 13:28 | 39.95366 | -8.32308 | 30674 ft | 389 kts | 223° |
| 2026-05-05 13:29 | 39.93153 | -8.34359 | 30315 ft | 385 kts | 223° |
| 2026-05-05 13:29 | 39.90987 | -8.36366 | 29917 ft | 382 kts | 223° |
| 2026-05-05 13:29 | 39.88821 | -8.38372 | 29500 ft | 380 kts | 223° |
| 2026-05-05 13:29 | 39.86696 | -8.40336 | 29116 ft | 377 kts | 223° |
| 2026-05-05 13:30 | 39.84548 | -8.42322 | 28735 ft | 374 kts | 223° |
| 2026-05-05 13:30 | 39.82451 | -8.44257 | 28359 ft | 371 kts | 223° |
| 2026-05-05 13:30 | 39.80348 | -8.46200 | 28008 ft | 367 kts | 223° |
| 2026-05-05 13:30 | 39.78295 | -8.48093 | 27641 ft | 365 kts | 223° |
| 2026-05-05 13:31 | 39.76236 | -8.49992 | 27283 ft | 362 kts | 223° |
| 2026-05-05 13:31 | 39.74182 | -8.51883 | 26908 ft | 359 kts | 223° |
| 2026-05-05 13:31 | 39.72155 | -8.53747 | 26528 ft | 358 kts | 223° |
| 2026-05-05 13:31 | 39.70145 | -8.55596 | 26172 ft | 355 kts | 223° |
| 2026-05-05 13:32 | 39.68140 | -8.57439 | 25814 ft | 353 kts | 223° |
| 2026-05-05 13:32 | 39.66151 | -8.59264 | 25448 ft | 351 kts | 223° |
| 2026-05-05 13:32 | 39.64153 | -8.61097 | 25106 ft | 349 kts | 223° |
| 2026-05-05 13:32 | 39.62185 | -8.62901 | 24755 ft | 347 kts | 223° |
| 2026-05-05 13:33 | 39.60210 | -8.64710 | 24385 ft | 346 kts | 223° |
| 2026-05-05 13:33 | 39.58258 | -8.66497 | 24039 ft | 344 kts | 222° |
| 2026-05-05 13:33 | 39.56324 | -8.68266 | 23684 ft | 343 kts | 222° |
| 2026-05-05 13:33 | 39.54377 | -8.70047 | 23338 ft | 342 kts | 222° |
| 2026-05-05 13:34 | 39.52418 | -8.71837 | 22987 ft | 341 kts | 222° |
| 2026-05-05 13:34 | 39.50485 | -8.73602 | 22651 ft | 340 kts | 222° |
| 2026-05-05 13:34 | 39.48576 | -8.75344 | 22303 ft | 339 kts | 221° |
| 2026-05-05 13:34 | 39.46605 | -8.77031 | 21990 ft | 341 kts | 216° |
| 2026-05-05 13:35 | 39.44511 | -8.78454 | 21756 ft | 341 kts | 213° |
| 2026-05-05 13:35 | 39.42361 | -8.79840 | 21563 ft | 350 kts | 212° |
| 2026-05-05 13:35 | 39.40165 | -8.81258 | 21380 ft | 351 kts | 213° |
| 2026-05-05 13:35 | 39.38016 | -8.82659 | 21203 ft | 350 kts | 213° |
| 2026-05-05 13:36 | 39.35840 | -8.84088 | 21017 ft | 350 kts | 213° |
| 2026-05-05 13:36 | 39.33673 | -8.85520 | 20835 ft | 349 kts | 213° |
| 2026-05-05 13:36 | 39.31520 | -8.86951 | 20661 ft | 348 kts | 213° |
| 2026-05-05 13:36 | 39.29362 | -8.88388 | 20458 ft | 347 kts | 213° |
| 2026-05-05 13:37 | 39.27220 | -8.89814 | 20212 ft | 346 kts | 213° |
| 2026-05-05 13:37 | 39.25088 | -8.91235 | 19911 ft | 345 kts | 213° |
| 2026-05-05 13:37 | 39.22963 | -8.92649 | 19594 ft | 343 kts | 212° |
| 2026-05-05 13:37 | 39.20864 | -8.94045 | 19299 ft | 341 kts | 212° |
| 2026-05-05 13:38 | 39.18758 | -8.95444 | 18969 ft | 340 kts | 212° |
| 2026-05-05 13:38 | 39.16663 | -8.96836 | 18630 ft | 339 kts | 212° |
| 2026-05-05 13:38 | 39.14570 | -8.98228 | 18288 ft | 337 kts | 212° |
| 2026-05-05 13:38 | 39.12470 | -8.99623 | 17958 ft | 335 kts | 212° |
| 2026-05-05 13:39 | 39.10421 | -9.00997 | 17661 ft | 334 kts | 212° |
| 2026-05-05 13:39 | 39.08370 | -9.02359 | 17359 ft | 334 kts | 213° |
| 2026-05-05 13:39 | 39.06424 | -9.03926 | 17064 ft | 329 kts | 220° |
| 2026-05-05 13:39 | 39.04581 | -9.05650 | 16677 ft | 329 kts | 221° |
| 2026-05-05 13:40 | 39.02750 | -9.07421 | 16279 ft | 329 kts | 222° |
| 2026-05-05 13:40 | 39.00923 | -9.09204 | 15885 ft | 329 kts | 222° |
| 2026-05-05 13:40 | 38.99101 | -9.10978 | 15491 ft | 330 kts | 222° |
| 2026-05-05 13:40 | 38.97277 | -9.12749 | 15102 ft | 330 kts | 222° |
| 2026-05-05 13:41 | 38.95439 | -9.14536 | 14705 ft | 330 kts | 222° |
| 2026-05-05 13:41 | 38.93618 | -9.16309 | 14316 ft | 330 kts | 222° |
| 2026-05-05 13:41 | 38.91795 | -9.18091 | 13945 ft | 329 kts | 222° |
| 2026-05-05 13:41 | 38.89998 | -9.19846 | 13578 ft | 328 kts | 222° |
| 2026-05-05 13:42 | 38.88153 | -9.21652 | 13153 ft | 323 kts | 222° |
| 2026-05-05 13:42 | 38.86409 | -9.23362 | 12775 ft | 311 kts | 222° |
| 2026-05-05 13:42 | 38.84701 | -9.25041 | 12440 ft | 309 kts | 222° |
| 2026-05-05 13:42 | 38.82993 | -9.26730 | 12073 ft | 310 kts | 222° |
| 2026-05-05 13:43 | 38.81290 | -9.28421 | 11709 ft | 311 kts | 222° |
| 2026-05-05 13:43 | 38.79596 | -9.30114 | 11341 ft | 312 kts | 222° |
| 2026-05-05 13:43 | 38.77883 | -9.31835 | 10972 ft | 312 kts | 222° |
| 2026-05-05 13:43 | 38.76180 | -9.33554 | 10608 ft | 313 kts | 222° |
| 2026-05-05 13:44 | 38.74485 | -9.35273 | 10242 ft | 313 kts | 222° |
| 2026-05-05 13:44 | 38.72768 | -9.37023 | 9867 ft | 314 kts | 222° |
| 2026-05-05 13:44 | 38.71104 | -9.38720 | 9436 ft | 304 kts | 222° |
| 2026-05-05 13:44 | 38.69490 | -9.40367 | 9063 ft | 292 kts | 222° |
| 2026-05-05 13:45 | 38.67858 | -9.41959 | 8728 ft | 296 kts | 214° |
| 2026-05-05 13:45 | 38.65897 | -9.42702 | 8341 ft | 303 kts | 181° |
| 2026-05-05 13:45 | 38.63862 | -9.42036 | 7968 ft | 305 kts | 148° |
| 2026-05-05 13:45 | 38.62336 | -9.40202 | 7606 ft | 302 kts | 126° |
| 2026-05-05 13:46 | 38.61103 | -9.38024 | 7238 ft | 303 kts | 123° |
| 2026-05-05 13:46 | 38.59858 | -9.35872 | 6864 ft | 305 kts | 126° |
| 2026-05-05 13:46 | 38.58536 | -9.33783 | 6354 ft | 299 kts | 128° |
| 2026-05-05 13:46 | 38.57331 | -9.31698 | 5842 ft | 288 kts | 110° |
| 2026-05-05 13:47 | 38.57028 | -9.29264 | 5332 ft | 272 kts | 76° |
| 2026-05-05 13:47 | 38.57795 | -9.27198 | 4832 ft | 258 kts | 41° |
| 2026-05-05 13:47 | 38.59263 | -9.25998 | 4346 ft | 248 kts | 24° |
| 2026-05-05 13:47 | 38.60720 | -9.24894 | 3958 ft | 243 kts | 33° |
| 2026-05-05 13:48 | 38.62038 | -9.23533 | 3426 ft | 244 kts | 39° |
| 2026-05-05 13:48 | 38.63280 | -9.22070 | 2892 ft | 244 kts | 37° |
| 2026-05-05 13:48 | 38.64634 | -9.20891 | 2718 ft | 219 kts | 26° |
| 2026-05-05 13:48 | 38.65934 | -9.20085 | 2605 ft | 200 kts | 21° |
| 2026-05-05 13:49 | 38.67195 | -9.19423 | 2327 ft | 193 kts | 19° |
| 2026-05-05 13:49 | 38.68424 | -9.18788 | 2071 ft | 185 kts | 19° |
| 2026-05-05 13:49 | 38.69590 | -9.18171 | 1796 ft | 178 kts | 19° |
| 2026-05-05 13:49 | 38.70685 | -9.17581 | 1569 ft | 166 kts | 19° |
| 2026-05-05 13:50 | 38.71722 | -9.17023 | 1377 ft | 156 kts | 18° |
| 2026-05-05 13:50 | 38.72704 | -9.16497 | 1184 ft | 150 kts | 18° |
| 2026-05-05 13:50 | 38.73654 | -9.15991 | 1001 ft | 143 kts | 21° |
| 2026-05-05 13:50 | 38.74543 | -9.15513 | 807 ft | 136 kts | 20° |
| 2026-05-05 13:51 | 38.75415 | -9.15053 | 657 ft | 133 kts | 20° |
| 2026-05-05 13:51 | 38.76279 | -9.14578 | 459 ft | 134 kts | 19° |
| 2026-05-05 13:51 | 38.77121 | -9.14127 | 354 ft | 126 kts | 19° |
| 2026-05-05 13:51 | 38.77792 | -9.13777 | 367 ft | 79 kts | 24° |
| 2026-05-05 13:52 | 38.78137 | -9.13592 | 366 ft | 32 kts | 23° |
| 2026-05-05 13:52 | 38.78211 | -9.13472 | 363 ft | 11 kts | 143° |
| 2026-05-05 13:52 | 38.78182 | -9.13460 | 362 ft | 8 kts | 163° |
| 2026-05-05 13:52 | 38.78128 | -9.13442 | 359 ft | 7 kts | 167° |
| 2026-05-05 13:53 | 38.78085 | -9.13431 | 356 ft | 7 kts | 169° |
| 2026-05-05 13:53 | 38.78011 | -9.13413 | 353 ft | 13 kts | 169° |
| 2026-05-05 13:53 | 38.77969 | -9.13404 | 352 ft | 1 kts | 185° |
| 2026-05-05 13:53 | 38.77950 | -9.13422 | 352 ft | 5 kts | 221° |
| 2026-05-05 13:54 | 38.77923 | -9.13454 | 353 ft | 4 kts | 223° |
| 2026-05-05 13:54 | 38.77906 | -9.13475 | 355 ft | 3 kts | 222° |
| 2026-05-05 13:54 | 38.77873 | -9.13502 | 356 ft | 9 kts | 204° |
| 2026-05-05 13:54 | 38.77788 | -9.13547 | 358 ft | 15 kts | 202° |
| 2026-05-05 13:55 | 38.77687 | -9.13600 | 359 ft | 16 kts | 202° |
| 2026-05-05 13:55 | 38.77577 | -9.13659 | 358 ft | 17 kts | 203° |
| 2026-05-05 13:55 | 38.77469 | -9.13719 | 356 ft | 14 kts | 202° |
| 2026-05-05 13:55 | 38.77369 | -9.13772 | 355 ft | 16 kts | 202° |
| 2026-05-05 13:56 | 38.77275 | -9.13819 | 354 ft | 11 kts | 201° |
| 2026-05-05 13:56 | 38.77204 | -9.13855 | 355 ft | 11 kts | 201° |
| 2026-05-05 13:56 | 38.77130 | -9.13893 | 355 ft | 11 kts | 202° |
| 2026-05-05 13:56 | 38.77049 | -9.13888 | 354 ft | 12 kts | 165° |
| 2026-05-05 13:57 | 38.76960 | -9.13862 | 353 ft | 13 kts | 170° |
| 2026-05-05 13:57 | 38.76869 | -9.13841 | 351 ft | 10 kts | 169° |
| 2026-05-05 13:57 | 38.76796 | -9.13820 | 349 ft | 7 kts | 168° |
| 2026-05-05 13:57 | 38.76765 | -9.13797 | 349 ft | 4 kts | 93° |
| 2026-05-05 13:58 | 38.76772 | -9.13757 | 350 ft | 4 kts | 77° |
| 2026-05-05 13:58 | 38.76777 | -9.13724 | 350 ft | 2 kts | 78° |
| 2026-05-05 13:58 | 38.76780 | -9.13703 | 351 ft | 0 kts | 78° |
| 2026-05-05 13:58 | 38.76780 | -9.13702 | 351 ft | 0 kts | 78° |